Grantville, New York
Current Conditions -  °F | °C
As of 7:53 PM on Thursday 27 Nov 2014 (Local Time) from KMSS Reporting Station
Overcast Overcast  
Wind Chill: 22°   Ceiling: 3600
Heat Index: 28°   Visibility: 10mi
Dew Point: 19°   Wind: 6mph
Humidity: 69%   Direction: 310°NW
Pressure: 30.07"   Gusts: NA
Location:  44.8601°N, 74.9939°W
Report Text: KMSS 280053Z AUTO 31005KT 10SM OVC036 M02/M07 A3007 RMK AO2 SLP188 T10221072
Loading
Personal Weather Stations






























Interactive Weather Map New forecast layout! Learn more

10-Day Weather Forecast

Advertisements
Track Severe Weather on mobile